createdAt,value
2022-12-03T00:01:39.790Z,63.69
2022-12-03T00:04:07.962Z,63.91
2022-12-03T00:06:36.024Z,63.77
2022-12-03T00:09:04.851Z,63.85
2022-12-03T00:11:33.140Z,63.77
2022-12-03T00:14:01.130Z,63.72
2022-12-03T00:16:29.238Z,64.13
2022-12-03T00:18:57.339Z,64.19
2022-12-03T00:21:25.493Z,64.17
2022-12-03T00:23:53.537Z,64.26
2022-12-03T00:26:21.662Z,64.24
2022-12-03T00:28:49.702Z,64.29
2022-12-03T00:31:18.345Z,64.26
2022-12-03T00:33:46.424Z,64.35
2022-12-03T00:36:14.520Z,64.34
2022-12-03T00:38:42.655Z,64.27
2022-12-03T00:41:10.630Z,64.20
2022-12-03T00:43:38.749Z,64.23
2022-12-03T00:46:06.849Z,64.35
2022-12-03T00:48:35.030Z,64.24
2022-12-03T00:51:03.041Z,64.28
2022-12-03T00:53:31.098Z,64.13
2022-12-03T00:55:59.265Z,63.98
2022-12-03T00:58:27.182Z,64.03
2022-12-03T01:00:55.194Z,64.07
2022-12-03T01:03:22.939Z,64.21
2022-12-03T01:05:50.766Z,64.13
2022-12-03T01:08:18.820Z,64.18
2022-12-03T01:10:47.043Z,64.01
2022-12-03T01:13:14.947Z,63.96
2022-12-03T01:15:43.040Z,63.75
2022-12-03T01:18:11.007Z,63.68
2022-12-03T01:20:39.038Z,63.76
2022-12-03T01:23:06.893Z,63.89
2022-12-03T01:25:34.967Z,64.10
2022-12-03T01:28:03.018Z,64.31
2022-12-03T01:30:50.951Z,64.37
2022-12-03T01:33:18.901Z,64.48
2022-12-03T01:35:46.882Z,64.30
2022-12-03T01:38:14.860Z,64.10
2022-12-03T01:40:42.845Z,64.19
2022-12-03T01:43:10.923Z,64.12
2022-12-03T01:45:38.736Z,64.18
2022-12-03T01:48:06.961Z,64.11
2022-12-03T01:50:34.915Z,64.09
2022-12-03T01:53:03.270Z,64.17
2022-12-03T01:55:31.460Z,64.31
2022-12-03T01:58:01.184Z,64.31
2022-12-03T02:00:30.505Z,64.29
2022-12-03T02:03:01.746Z,64.41
2022-12-03T02:05:33.970Z,64.60
2022-12-03T02:08:02.309Z,64.74
2022-12-03T02:10:36.258Z,64.80
2022-12-03T02:13:11.020Z,64.52
2022-12-03T02:15:40.280Z,64.42
2022-12-03T02:18:09.488Z,64.29
2022-12-03T02:20:44.371Z,64.33
2022-12-03T02:23:26.218Z,64.07
2022-12-03T02:25:54.237Z,64.42
2022-12-03T02:28:23.332Z,64.33
2022-12-03T02:30:51.358Z,64.42
2022-12-03T02:33:19.597Z,64.48
2022-12-03T02:35:48.484Z,64.36
2022-12-03T02:38:20.092Z,64.41
2022-12-03T02:40:52.516Z,64.31
2022-12-03T02:43:21.780Z,64.29
2022-12-03T02:45:53.651Z,64.13
2022-12-03T02:48:27.543Z,64.18
2022-12-03T02:51:00.080Z,64.28
2022-12-03T02:53:32.814Z,64.20
2022-12-03T02:56:02.758Z,64.25
2022-12-03T02:58:33.076Z,64.23
2022-12-03T03:01:04.071Z,64.01
2022-12-03T03:03:33.284Z,63.84
2022-12-03T03:06:02.795Z,63.90
2022-12-03T03:08:31.396Z,63.59
2022-12-03T03:11:02.145Z,63.83
2022-12-03T03:13:32.645Z,64.11
2022-12-03T03:16:03.184Z,64.29
2022-12-03T03:18:32.237Z,64.19
2022-12-03T03:21:00.668Z,64.27
2022-12-03T03:23:28.564Z,64.30
2022-12-03T03:26:09.889Z,64.00
2022-12-03T03:28:45.046Z,64.04
2022-12-03T03:31:16.096Z,63.88
2022-12-03T03:33:46.683Z,63.77
2022-12-03T03:36:15.972Z,63.81
2022-12-03T03:38:44.325Z,63.89
2022-12-03T03:41:12.937Z,63.87
2022-12-03T03:43:42.404Z,64.04
2022-12-03T03:46:12.280Z,64.07
2022-12-03T03:48:41.650Z,63.97
2022-12-03T03:51:10.440Z,64.07
2022-12-03T03:53:48.087Z,64.07
2022-12-03T03:56:19.254Z,64.18
2022-12-03T03:58:47.425Z,64.22
2022-12-03T04:01:17.265Z,64.26
2022-12-03T04:03:45.345Z,64.20
2022-12-03T04:06:13.135Z,64.26
2022-12-03T04:08:41.013Z,64.24
2022-12-03T04:11:28.297Z,64.20
2022-12-03T04:13:56.428Z,64.33
2022-12-03T04:16:24.388Z,64.27
2022-12-03T04:18:52.450Z,64.36
2022-12-03T04:21:41.809Z,64.41
2022-12-03T04:24:11.332Z,64.45
2022-12-03T04:26:58.059Z,64.55
2022-12-03T04:29:26.172Z,64.43
2022-12-03T04:32:13.184Z,64.40
2022-12-03T04:35:00.925Z,64.43
2022-12-03T04:37:29.141Z,64.58
2022-12-03T04:39:57.227Z,64.62
2022-12-03T04:42:25.262Z,64.55
2022-12-03T04:44:53.589Z,64.67
2022-12-03T04:47:22.464Z,64.72
2022-12-03T04:49:51.395Z,64.66
2022-12-03T04:52:20.987Z,64.78
2022-12-03T04:54:50.045Z,64.68
2022-12-03T04:57:18.292Z,64.51
2022-12-03T04:59:46.276Z,64.56
2022-12-03T05:02:14.444Z,64.39
2022-12-03T05:04:43.593Z,64.64
2022-12-03T05:07:11.807Z,64.60
2022-12-03T05:09:40.025Z,64.47
2022-12-03T05:12:08.066Z,64.41
2022-12-03T05:14:36.842Z,64.38
2022-12-03T05:17:04.944Z,64.33
2022-12-03T05:19:51.972Z,64.24
2022-12-03T05:22:19.961Z,64.25
2022-12-03T05:24:48.053Z,64.23
2022-12-03T05:27:21.730Z,64.35
2022-12-03T05:29:52.620Z,64.59
2022-12-03T05:32:22.295Z,64.68
2022-12-03T05:34:50.728Z,64.73
2022-12-03T05:37:19.106Z,64.93
2022-12-03T05:39:47.104Z,64.85
2022-12-03T05:42:33.714Z,64.74
2022-12-03T05:45:02.442Z,64.65
2022-12-03T05:47:30.484Z,64.78
2022-12-03T05:49:58.384Z,64.72
2022-12-03T05:52:26.214Z,64.82
2022-12-03T05:54:55.675Z,64.93
2022-12-03T05:57:23.811Z,64.89
2022-12-03T05:59:51.867Z,64.95
2022-12-03T06:02:21.008Z,65.11
2022-12-03T06:04:50.635Z,65.13
2022-12-03T06:07:18.960Z,65.46
2022-12-03T06:09:46.875Z,65.44
2022-12-03T06:12:15.896Z,65.49
2022-12-03T06:14:43.884Z,65.58
2022-12-03T06:17:11.823Z,65.60
2022-12-03T06:19:39.773Z,65.78
2022-12-03T06:22:07.911Z,65.84
2022-12-03T06:24:35.865Z,66.05
2022-12-03T06:27:05.517Z,66.01
2022-12-03T06:29:33.443Z,66.04
2022-12-03T06:32:01.442Z,65.97
2022-12-03T06:34:29.458Z,65.96
2022-12-03T06:36:57.740Z,66.07
2022-12-03T06:39:25.682Z,66.04
2022-12-03T06:41:53.552Z,66.13
2022-12-03T06:44:21.724Z,66.10
2022-12-03T06:46:49.933Z,66.30
2022-12-03T06:49:18.017Z,66.42
2022-12-03T06:51:46.044Z,66.54
2022-12-03T06:54:13.889Z,66.90
2022-12-03T06:56:45.076Z,67.03
2022-12-03T06:59:13.938Z,67.14
2022-12-03T07:01:42.070Z,67.08
2022-12-03T07:04:10.134Z,67.07
2022-12-03T07:06:38.208Z,67.06
2022-12-03T07:09:06.140Z,66.95
2022-12-03T07:11:40.412Z,66.88
2022-12-03T07:14:11.350Z,66.88
2022-12-03T07:16:40.043Z,67.03
2022-12-03T07:19:08.123Z,67.32
2022-12-03T07:21:36.144Z,67.14
2022-12-03T07:24:06.165Z,67.43
2022-12-03T07:26:34.239Z,67.38
2022-12-03T07:29:02.393Z,67.54
2022-12-03T07:31:30.427Z,67.55
2022-12-03T07:33:58.556Z,67.62
2022-12-03T07:36:26.593Z,67.49
2022-12-03T07:38:54.580Z,67.77
2022-12-03T07:41:22.593Z,67.75
2022-12-03T07:43:50.569Z,67.83
2022-12-03T07:46:18.555Z,67.76
2022-12-03T07:48:46.564Z,67.83
2022-12-03T07:51:15.586Z,67.51
2022-12-03T07:53:43.907Z,67.28
2022-12-03T07:56:11.962Z,67.16
2022-12-03T07:58:40.961Z,67.22
2022-12-03T08:01:10.488Z,67.50
2022-12-03T08:03:38.781Z,67.46
2022-12-03T08:06:07.011Z,67.54
2022-12-03T08:08:35.074Z,67.73
2022-12-03T08:11:04.478Z,67.81
2022-12-03T08:13:34.857Z,67.78
2022-12-03T08:16:16.093Z,67.73
2022-12-03T08:18:45.518Z,67.84
2022-12-03T08:21:16.100Z,67.64
2022-12-03T08:23:44.263Z,67.80
2022-12-03T08:26:28.211Z,67.90
2022-12-03T08:28:56.274Z,67.64
2022-12-03T08:31:32.776Z,67.65
2022-12-03T08:34:23.724Z,67.35
2022-12-03T08:37:00.267Z,67.53
2022-12-03T08:39:40.582Z,67.78
2022-12-03T08:42:34.378Z,67.81
2022-12-03T08:45:40.244Z,67.81
2022-12-03T08:48:14.430Z,67.82
2022-12-03T08:50:43.675Z,68.01
2022-12-03T08:53:14.701Z,67.84
2022-12-03T08:55:53.077Z,68.13
2022-12-03T08:58:43.125Z,68.17
2022-12-03T09:01:11.074Z,68.28
2022-12-03T09:03:50.326Z,68.39
2022-12-03T09:06:18.738Z,68.41
2022-12-03T09:08:48.402Z,68.24
2022-12-03T09:11:16.426Z,68.25
2022-12-03T09:13:44.429Z,68.12
2022-12-03T09:16:13.609Z,68.18
2022-12-03T09:18:41.636Z,67.92
2022-12-03T09:21:09.711Z,67.96
2022-12-03T09:23:37.493Z,68.27
2022-12-03T09:26:05.655Z,68.14
2022-12-03T09:28:33.599Z,68.32
2022-12-03T09:31:01.373Z,68.30
2022-12-03T09:33:31.181Z,68.16
2022-12-03T09:35:59.535Z,67.92
2022-12-03T09:38:27.490Z,67.96
2022-12-03T09:40:55.482Z,68.11
2022-12-03T09:43:24.607Z,68.24
2022-12-03T09:45:57.982Z,68.40
2022-12-03T09:48:26.207Z,68.70
2022-12-03T09:50:54.420Z,68.70
2022-12-03T09:53:26.104Z,68.61
2022-12-03T09:55:54.444Z,68.61
2022-12-03T09:58:31.849Z,68.71
2022-12-03T10:01:02.581Z,68.61
2022-12-03T10:03:32.147Z,68.68
2022-12-03T10:06:00.149Z,68.46
2022-12-03T10:08:32.352Z,68.40
2022-12-03T10:11:00.623Z,68.22
2022-12-03T10:13:31.538Z,68.12
2022-12-03T10:16:01.238Z,68.10
2022-12-03T10:18:38.306Z,68.08
2022-12-03T10:21:16.877Z,68.00
2022-12-03T10:23:49.510Z,67.70
2022-12-03T10:26:37.988Z,67.73
2022-12-03T10:29:19.851Z,67.89
2022-12-03T10:32:06.115Z,67.93
2022-12-03T10:34:39.650Z,67.75
2022-12-03T10:37:12.622Z,67.81
2022-12-03T10:40:08.750Z,68.01
2022-12-03T10:42:41.382Z,68.09
2022-12-03T10:45:09.267Z,68.28
2022-12-03T10:47:37.346Z,68.24
2022-12-03T10:50:18.746Z,68.11
2022-12-03T10:52:47.276Z,67.98
2022-12-03T10:55:16.337Z,67.90
2022-12-03T10:57:46.417Z,67.92
2022-12-03T11:00:19.021Z,67.78
2022-12-03T11:02:56.185Z,67.92
2022-12-03T11:05:28.345Z,67.58
2022-12-03T11:07:56.913Z,67.68
2022-12-03T11:10:25.419Z,67.89
2022-12-03T11:13:31.323Z,67.94
2022-12-03T11:16:04.374Z,67.86
2022-12-03T11:18:38.608Z,67.98
2022-12-03T11:21:06.797Z,68.09
2022-12-03T11:23:47.140Z,67.93
2022-12-03T11:26:38.110Z,67.95
2022-12-03T11:29:14.389Z,67.79
2022-12-03T11:31:43.543Z,67.37
2022-12-03T11:34:20.673Z,67.05
2022-12-03T11:37:10.893Z,67.18
2022-12-03T11:39:45.230Z,66.81
2022-12-03T11:42:28.758Z,66.48
2022-12-03T11:45:05.918Z,66.50
2022-12-03T11:47:44.835Z,66.18
2022-12-03T11:50:22.087Z,66.23
2022-12-03T11:52:55.122Z,66.03
2022-12-03T11:55:38.531Z,65.88
2022-12-03T11:58:17.188Z,66.21
2022-12-03T12:00:54.878Z,66.47
2022-12-03T12:03:33.870Z,66.29
2022-12-03T12:06:06.160Z,66.27
2022-12-03T12:08:36.280Z,65.90
2022-12-03T12:11:17.198Z,65.46
2022-12-03T12:13:45.126Z,65.66
2022-12-03T12:16:13.280Z,65.80
2022-12-03T12:18:43.942Z,65.85
2022-12-03T12:21:44.698Z,66.20
2022-12-03T12:24:32.018Z,66.36
2022-12-03T12:27:09.093Z,66.32
2022-12-03T12:29:38.851Z,66.05
2022-12-03T12:32:10.294Z,66.18
2022-12-03T12:34:43.985Z,65.96
2022-12-03T12:37:26.966Z,65.92
2022-12-03T12:39:57.383Z,66.16
2022-12-03T12:42:35.083Z,66.37
2022-12-03T12:45:13.835Z,66.39
2022-12-03T12:48:09.043Z,66.28
2022-12-03T12:50:39.103Z,66.28
2022-12-03T12:53:23.029Z,66.11
2022-12-03T12:56:00.645Z,66.24
2022-12-03T12:58:33.249Z,66.29
2022-12-03T13:01:05.897Z,66.37
2022-12-03T13:03:36.971Z,66.49
2022-12-03T13:06:05.480Z,66.33
2022-12-03T13:08:44.471Z,66.25
2022-12-03T13:11:24.762Z,66.29
2022-12-03T13:13:53.071Z,66.24
2022-12-03T13:16:24.054Z,66.16
2022-12-03T13:18:58.649Z,66.10
2022-12-03T13:21:38.506Z,65.96
2022-12-03T13:24:45.636Z,66.02
2022-12-03T13:27:17.795Z,65.91
2022-12-03T13:29:49.450Z,65.92
2022-12-03T13:32:23.407Z,66.11
2022-12-03T13:34:51.475Z,66.38
2022-12-03T13:37:26.682Z,66.56
2022-12-03T13:39:57.068Z,66.53
2022-12-03T13:42:46.070Z,66.69
2022-12-03T13:45:14.064Z,66.81
2022-12-03T13:47:50.521Z,66.81
2022-12-03T13:50:38.584Z,66.77
2022-12-03T13:53:24.257Z,66.74
2022-12-03T13:55:58.014Z,66.99
2022-12-03T13:58:25.945Z,67.12
2022-12-03T14:00:53.861Z,67.06
2022-12-03T14:03:23.405Z,67.20
2022-12-03T14:05:51.474Z,67.26
2022-12-03T14:08:20.586Z,67.31
2022-12-03T14:10:48.742Z,67.32
2022-12-03T14:13:16.763Z,67.50
2022-12-03T14:15:44.676Z,67.83
2022-12-03T14:18:12.642Z,68.17
2022-12-03T14:20:44.054Z,68.40
2022-12-03T14:23:12.086Z,68.59
2022-12-03T14:25:40.177Z,68.85
2022-12-03T14:28:08.787Z,69.01
2022-12-03T14:30:37.314Z,69.07
2022-12-03T14:33:05.377Z,69.37
2022-12-03T14:35:33.305Z,69.60
2022-12-03T14:38:01.148Z,69.69
2022-12-03T14:40:28.962Z,69.99
2022-12-03T14:42:56.868Z,69.87
2022-12-03T14:45:27.709Z,69.84
2022-12-03T14:47:55.839Z,69.99
2022-12-03T14:50:23.782Z,70.14
2022-12-03T14:52:51.814Z,70.31
2022-12-03T14:55:19.651Z,70.56
2022-12-03T14:57:47.680Z,70.61
2022-12-03T15:00:16.125Z,70.77
2022-12-03T15:02:44.191Z,71.03
2022-12-03T15:05:12.340Z,71.07
2022-12-03T15:07:40.370Z,71.14
2022-12-03T15:10:08.781Z,71.20
2022-12-03T15:12:36.760Z,70.98
2022-12-03T15:15:04.982Z,70.95
2022-12-03T15:17:33.039Z,70.93
2022-12-03T15:20:01.026Z,71.11
2022-12-03T15:22:30.008Z,71.18
2022-12-03T15:24:57.926Z,71.29
2022-12-03T15:27:26.543Z,71.23
2022-12-03T15:29:54.715Z,71.36
2022-12-03T15:32:23.009Z,71.39
2022-12-03T15:34:51.493Z,71.24
2022-12-03T15:37:19.582Z,71.19
2022-12-03T15:39:48.904Z,71.37
2022-12-03T15:42:16.997Z,71.34
2022-12-03T15:44:47.086Z,71.40
2022-12-03T15:47:15.109Z,71.60
2022-12-03T15:49:43.094Z,71.58
2022-12-03T15:52:11.092Z,71.53
2022-12-03T15:54:39.093Z,71.45
2022-12-03T15:57:07.185Z,71.44
2022-12-03T15:59:35.215Z,71.40
2022-12-03T16:02:05.105Z,71.45
2022-12-03T16:04:36.489Z,71.38
2022-12-03T16:07:04.589Z,71.22
2022-12-03T16:09:32.863Z,71.29
2022-12-03T16:12:00.877Z,71.27
2022-12-03T16:14:29.170Z,71.06
2022-12-03T16:16:59.089Z,71.15
2022-12-03T16:19:27.310Z,71.11
2022-12-03T16:21:55.329Z,71.21
2022-12-03T16:24:23.606Z,71.07
2022-12-03T16:26:52.661Z,70.70
2022-12-03T16:29:20.779Z,70.74
2022-12-03T16:31:48.796Z,70.77
2022-12-03T16:34:17.089Z,70.82
2022-12-03T16:36:45.960Z,70.88
2022-12-03T16:39:14.008Z,70.79
2022-12-03T16:41:42.555Z,70.82
2022-12-03T16:44:20.331Z,70.84
2022-12-03T16:46:48.796Z,70.92
2022-12-03T16:49:16.790Z,70.95
2022-12-03T16:51:44.835Z,70.97
2022-12-03T16:54:12.855Z,70.83
2022-12-03T16:56:40.823Z,70.87
2022-12-03T16:59:09.033Z,70.89
2022-12-03T17:01:37.126Z,70.78
2022-12-03T17:04:05.308Z,70.81
2022-12-03T17:06:33.464Z,70.75
2022-12-03T17:09:01.824Z,70.71
2022-12-03T17:11:29.830Z,70.69
2022-12-03T17:13:57.906Z,70.49
2022-12-03T17:16:25.908Z,70.50
2022-12-03T17:18:54.107Z,70.38
2022-12-03T17:21:22.285Z,70.53
2022-12-03T17:23:51.312Z,70.52
2022-12-03T17:26:20.312Z,70.59
2022-12-03T17:28:48.392Z,70.66
2022-12-03T17:31:16.735Z,70.66
2022-12-03T17:33:44.834Z,70.70
2022-12-03T17:36:13.850Z,70.63
2022-12-03T17:38:42.040Z,70.51
2022-12-03T17:41:10.287Z,70.42
2022-12-03T17:43:38.345Z,70.32
2022-12-03T17:46:07.516Z,70.42
2022-12-03T17:48:35.915Z,70.36
2022-12-03T17:51:04.245Z,70.15
2022-12-03T17:53:32.211Z,70.24
2022-12-03T17:56:00.451Z,69.94
2022-12-03T17:58:28.864Z,69.91
2022-12-03T18:01:02.142Z,69.84
2022-12-03T18:03:31.304Z,70.12
2022-12-03T18:05:59.597Z,70.00
2022-12-03T18:08:28.234Z,69.87
2022-12-03T18:10:56.504Z,69.99
2022-12-03T18:13:24.634Z,69.97
2022-12-03T18:15:52.979Z,70.07
2022-12-03T18:18:21.425Z,69.86
2022-12-03T18:20:49.797Z,69.94
2022-12-03T18:23:17.975Z,69.89
2022-12-03T18:25:45.886Z,70.00
2022-12-03T18:28:13.976Z,69.88
2022-12-03T18:30:43.332Z,69.95
2022-12-03T18:33:15.704Z,70.09
2022-12-03T18:35:44.496Z,69.99
2022-12-03T18:38:16.507Z,70.00
2022-12-03T18:40:46.443Z,69.93
2022-12-03T18:43:17.129Z,70.04
2022-12-03T18:45:45.281Z,69.99
2022-12-03T18:48:18.869Z,69.90
2022-12-03T18:50:48.554Z,69.81
2022-12-03T18:53:19.120Z,69.55
2022-12-03T18:55:47.780Z,69.61
2022-12-03T18:58:19.559Z,69.51
2022-12-03T19:00:47.906Z,69.51
2022-12-03T19:03:16.544Z,69.26
2022-12-03T19:05:44.764Z,69.25
2022-12-03T19:08:15.249Z,69.40
2022-12-03T19:10:45.223Z,69.28
2022-12-03T19:13:13.412Z,69.37
2022-12-03T19:15:41.570Z,69.46
2022-12-03T19:18:09.716Z,69.39
2022-12-03T19:20:41.072Z,69.44
2022-12-03T19:23:10.457Z,69.22
2022-12-03T19:25:38.555Z,69.17
2022-12-03T19:28:07.267Z,69.17
2022-12-03T19:30:35.533Z,69.10
2022-12-03T19:33:03.749Z,68.82
2022-12-03T19:35:32.854Z,69.03
2022-12-03T19:38:01.047Z,69.08
2022-12-03T19:40:29.198Z,69.11
2022-12-03T19:42:57.343Z,69.20
2022-12-03T19:45:25.563Z,69.18
2022-12-03T19:47:53.787Z,69.13
2022-12-03T19:50:23.457Z,69.22
2022-12-03T19:52:51.975Z,69.38
2022-12-03T19:55:21.091Z,69.33
2022-12-03T19:57:49.324Z,69.33
2022-12-03T20:00:17.978Z,69.21
2022-12-03T20:02:49.040Z,69.11
2022-12-03T20:05:17.180Z,69.29
2022-12-03T20:07:45.424Z,69.30
2022-12-03T20:10:13.689Z,69.41
2022-12-03T20:12:41.795Z,69.34
2022-12-03T20:15:10.487Z,69.38
2022-12-03T20:17:38.553Z,69.43
2022-12-03T20:20:07.508Z,69.39
2022-12-03T20:22:35.921Z,69.48
2022-12-03T20:25:04.316Z,69.40
2022-12-03T20:27:32.954Z,69.28
2022-12-03T20:30:01.227Z,69.40
2022-12-03T20:32:29.243Z,69.42
2022-12-03T20:34:57.413Z,69.40
2022-12-03T20:37:25.506Z,69.44
2022-12-03T20:39:54.327Z,69.37
2022-12-03T20:42:23.744Z,69.40
2022-12-03T20:44:55.116Z,69.51
2022-12-03T20:47:23.357Z,69.55
2022-12-03T20:49:51.580Z,69.66
2022-12-03T20:52:19.760Z,69.68
2022-12-03T20:54:47.977Z,69.92
2022-12-03T20:57:16.109Z,69.95
2022-12-03T20:59:44.312Z,69.90
2022-12-03T21:02:12.564Z,69.82
2022-12-03T21:04:41.018Z,69.87
2022-12-03T21:07:09.062Z,69.79
2022-12-03T21:09:37.375Z,69.76
2022-12-03T21:12:05.751Z,69.71
2022-12-03T21:14:33.863Z,69.71
2022-12-03T21:17:09.693Z,69.74
2022-12-03T21:19:40.561Z,69.82
2022-12-03T21:22:08.782Z,70.05
2022-12-03T21:24:36.974Z,69.95
2022-12-03T21:27:05.199Z,70.06
2022-12-03T21:29:33.356Z,70.10
2022-12-03T21:32:02.075Z,69.93
2022-12-03T21:34:35.849Z,70.01
2022-12-03T21:37:04.815Z,70.06
2022-12-03T21:39:32.936Z,70.12
2022-12-03T21:42:34.687Z,70.23
2022-12-03T21:44:48.980Z,70.16
2022-12-03T21:47:17.277Z,70.40
2022-12-03T21:49:45.511Z,70.44
2022-12-03T21:52:13.544Z,70.34
2022-12-03T21:54:41.603Z,70.57
2022-12-03T21:57:09.734Z,70.68
2022-12-03T21:59:37.853Z,70.80
2022-12-03T22:02:06.230Z,70.85
2022-12-03T22:04:34.644Z,71.12
2022-12-03T22:07:03.271Z,71.48
2022-12-03T22:09:33.104Z,71.43
2022-12-03T22:12:01.388Z,71.32
2022-12-03T22:14:30.334Z,71.49
2022-12-03T22:16:58.520Z,71.45
2022-12-03T22:19:27.293Z,71.39
2022-12-03T22:21:56.436Z,71.19
2022-12-03T22:24:24.416Z,71.22
2022-12-03T22:26:54.878Z,71.11
2022-12-03T22:29:23.108Z,71.10
2022-12-03T22:31:51.757Z,70.88
2022-12-03T22:34:19.885Z,70.97
2022-12-03T22:36:48.208Z,70.77
2022-12-03T22:39:16.467Z,70.86
2022-12-03T22:41:44.951Z,70.99
2022-12-03T22:44:13.160Z,71.05
2022-12-03T22:46:41.421Z,71.26
2022-12-03T22:49:11.765Z,71.20
2022-12-03T22:51:40.278Z,71.10
2022-12-03T22:54:08.338Z,71.08
2022-12-03T22:56:37.452Z,71.09
2022-12-03T22:59:05.744Z,70.98
2022-12-03T23:01:36.116Z,71.02
2022-12-03T23:04:05.701Z,71.07
2022-12-03T23:06:36.360Z,71.37
2022-12-03T23:09:06.927Z,71.62
2022-12-03T23:11:35.284Z,71.54
2022-12-03T23:14:03.615Z,71.10
2022-12-03T23:16:33.785Z,70.95
2022-12-03T23:19:02.795Z,70.73
2022-12-03T23:21:33.409Z,70.82
2022-12-03T23:24:03.752Z,70.68
2022-12-03T23:26:35.854Z,70.49
2022-12-03T23:29:05.914Z,70.66
2022-12-03T23:31:34.926Z,70.79
2022-12-03T23:34:04.121Z,71.03
2022-12-03T23:36:33.639Z,71.20
2022-12-03T23:39:02.104Z,71.33
2022-12-03T23:41:30.157Z,71.27
2022-12-03T23:43:58.224Z,71.07
2022-12-03T23:46:27.410Z,70.99
2022-12-03T23:48:58.608Z,70.86
2022-12-03T23:51:27.542Z,70.92
2022-12-03T23:53:56.578Z,70.95
2022-12-03T23:56:29.338Z,71.30
2022-12-03T23:58:58.117Z,71.53
